sensor_id;sensor_type;location;lat;lon;timestamp;P1;durP1;ratioP1;P2;durP2;ratioP2
14592;SDS011;7383;52.354;9.756;2022-10-30T00:00:55;6.07;;;3.55;;
14592;SDS011;7383;52.354;9.756;2022-10-30T00:03:21;4.18;;;3.20;;
14592;SDS011;7383;52.354;9.756;2022-10-30T00:05:48;3.85;;;3.50;;
14592;SDS011;7383;52.354;9.756;2022-10-30T00:08:21;3.85;;;3.55;;
14592;SDS011;7383;52.354;9.756;2022-10-30T00:10:51;4.43;;;3.45;;
14592;SDS011;7383;52.354;9.756;2022-10-30T00:13:18;4.30;;;3.55;;
14592;SDS011;7383;52.354;9.756;2022-10-30T00:15:46;3.15;;;2.95;;
14592;SDS011;7383;52.354;9.756;2022-10-30T00:18:13;3.72;;;3.42;;
14592;SDS011;7383;52.354;9.756;2022-10-30T00:20:40;3.75;;;3.40;;
14592;SDS011;7383;52.354;9.756;2022-10-30T00:23:07;4.60;;;3.50;;
14592;SDS011;7383;52.354;9.756;2022-10-30T00:25:35;5.35;;;3.25;;
14592;SDS011;7383;52.354;9.756;2022-10-30T00:28:01;4.93;;;4.43;;
14592;SDS011;7383;52.354;9.756;2022-10-30T00:30:28;5.10;;;4.57;;
14592;SDS011;7383;52.354;9.756;2022-10-30T00:32:55;4.50;;;4.10;;
14592;SDS011;7383;52.354;9.756;2022-10-30T00:35:22;4.65;;;4.10;;
14592;SDS011;7383;52.354;9.756;2022-10-30T00:37:51;4.38;;;3.53;;
14592;SDS011;7383;52.354;9.756;2022-10-30T00:40:20;4.75;;;3.47;;
14592;SDS011;7383;52.354;9.756;2022-10-30T00:42:52;3.90;;;3.50;;
14592;SDS011;7383;52.354;9.756;2022-10-30T00:45:19;4.78;;;3.60;;
14592;SDS011;7383;52.354;9.756;2022-10-30T00:47:50;4.53;;;3.70;;
14592;SDS011;7383;52.354;9.756;2022-10-30T00:50:26;4.22;;;3.75;;
14592;SDS011;7383;52.354;9.756;2022-10-30T00:52:59;4.85;;;3.95;;
14592;SDS011;7383;52.354;9.756;2022-10-30T00:55:35;4.30;;;3.80;;
14592;SDS011;7383;52.354;9.756;2022-10-30T00:58:07;4.28;;;3.85;;
14592;SDS011;7383;52.354;9.756;2022-10-30T01:00:40;5.40;;;3.47;;
14592;SDS011;7383;52.354;9.756;2022-10-30T01:03:10;3.70;;;3.30;;
14592;SDS011;7383;52.354;9.756;2022-10-30T01:05:36;3.78;;;3.38;;
14592;SDS011;7383;52.354;9.756;2022-10-30T01:08:04;4.25;;;3.70;;
14592;SDS011;7383;52.354;9.756;2022-10-30T01:10:30;3.95;;;3.53;;
14592;SDS011;7383;52.354;9.756;2022-10-30T01:19:31;4.00;;;3.53;;
14592;SDS011;7383;52.354;9.756;2022-10-30T01:25:08;5.20;;;3.15;;
14592;SDS011;7383;52.354;9.756;2022-10-30T01:28:06;3.28;;;2.97;;
14592;SDS011;7383;52.354;9.756;2022-10-30T01:31:12;4.30;;;3.28;;
14592;SDS011;7383;52.354;9.756;2022-10-30T01:33:54;4.57;;;3.45;;
14592;SDS011;7383;52.354;9.756;2022-10-30T01:36:46;4.85;;;3.38;;
14592;SDS011;7383;52.354;9.756;2022-10-30T01:40:07;6.47;;;4.13;;
14592;SDS011;7383;52.354;9.756;2022-10-30T01:43:20;3.40;;;3.10;;
14592;SDS011;7383;52.354;9.756;2022-10-30T01:52:35;3.50;;;3.20;;
14592;SDS011;7383;52.354;9.756;2022-10-30T01:55:24;4.80;;;2.97;;
14592;SDS011;7383;52.354;9.756;2022-10-30T01:58:06;3.53;;;3.17;;
14592;SDS011;7383;52.354;9.756;2022-10-30T02:00:55;4.30;;;3.38;;
14592;SDS011;7383;52.354;9.756;2022-10-30T02:03:38;4.55;;;3.05;;
14592;SDS011;7383;52.354;9.756;2022-10-30T02:06:38;3.83;;;3.35;;
14592;SDS011;7383;52.354;9.756;2022-10-30T02:16:19;3.92;;;3.15;;
14592;SDS011;7383;52.354;9.756;2022-10-30T02:26:22;3.95;;;3.10;;
14592;SDS011;7383;52.354;9.756;2022-10-30T02:39:16;3.78;;;3.13;;
14592;SDS011;7383;52.354;9.756;2022-10-30T02:51:24;3.22;;;2.92;;
14592;SDS011;7383;52.354;9.756;2022-10-30T02:57:46;5.35;;;3.00;;
14592;SDS011;7383;52.354;9.756;2022-10-30T03:00:41;3.47;;;2.90;;
14592;SDS011;7383;52.354;9.756;2022-10-30T03:17:03;4.40;;;3.28;;
14592;SDS011;7383;52.354;9.756;2022-10-30T03:42:45;3.40;;;3.00;;
14592;SDS011;7383;52.354;9.756;2022-10-30T03:45:12;3.40;;;3.10;;
14592;SDS011;7383;52.354;9.756;2022-10-30T03:47:45;3.78;;;3.20;;
14592;SDS011;7383;52.354;9.756;2022-10-30T03:50:26;4.13;;;2.85;;
14592;SDS011;7383;52.354;9.756;2022-10-30T03:53:56;5.03;;;3.10;;
14592;SDS011;7383;52.354;9.756;2022-10-30T03:56:58;3.90;;;3.00;;
14592;SDS011;7383;52.354;9.756;2022-10-30T03:59:45;4.20;;;3.05;;
14592;SDS011;7383;52.354;9.756;2022-10-30T04:02:24;3.83;;;2.90;;
14592;SDS011;7383;52.354;9.756;2022-10-30T04:05:14;3.20;;;2.90;;
14592;SDS011;7383;52.354;9.756;2022-10-30T04:08:05;3.88;;;3.15;;
14592;SDS011;7383;52.354;9.756;2022-10-30T04:11:04;4.65;;;3.40;;
14592;SDS011;7383;52.354;9.756;2022-10-30T04:17:07;3.40;;;2.90;;
14592;SDS011;7383;52.354;9.756;2022-10-30T04:20:16;5.50;;;3.50;;
14592;SDS011;7383;52.354;9.756;2022-10-30T04:26:56;5.13;;;3.22;;
14592;SDS011;7383;52.354;9.756;2022-10-30T04:29:36;3.33;;;2.92;;
14592;SDS011;7383;52.354;9.756;2022-10-30T04:33:16;4.85;;;3.35;;
14592;SDS011;7383;52.354;9.756;2022-10-30T04:34:57;3.80;;;3.40;;
14592;SDS011;7383;52.354;9.756;2022-10-30T04:41:03;3.75;;;3.25;;
14592;SDS011;7383;52.354;9.756;2022-10-30T04:54:22;3.72;;;3.25;;
14592;SDS011;7383;52.354;9.756;2022-10-30T04:56:53;3.05;;;2.72;;
14592;SDS011;7383;52.354;9.756;2022-10-30T05:00:35;3.78;;;3.15;;
14592;SDS011;7383;52.354;9.756;2022-10-30T05:13:52;3.83;;;3.20;;
14592;SDS011;7383;52.354;9.756;2022-10-30T05:23:31;3.05;;;2.78;;
14592;SDS011;7383;52.354;9.756;2022-10-30T05:26:02;3.45;;;3.15;;
14592;SDS011;7383;52.354;9.756;2022-10-30T05:29:05;3.33;;;3.03;;
14592;SDS011;7383;52.354;9.756;2022-10-30T05:34:56;4.40;;;3.70;;
14592;SDS011;7383;52.354;9.756;2022-10-30T05:37:35;6.18;;;3.50;;
14592;SDS011;7383;52.354;9.756;2022-10-30T05:43:45;4.07;;;3.33;;
14592;SDS011;7383;52.354;9.756;2022-10-30T05:46:24;3.42;;;3.13;;
14592;SDS011;7383;52.354;9.756;2022-10-30T06:23:08;4.25;;;3.08;;
14592;SDS011;7383;52.354;9.756;2022-10-30T06:31:34;4.63;;;3.08;;
14592;SDS011;7383;52.354;9.756;2022-10-30T06:34:01;3.97;;;3.40;;
14592;SDS011;7383;52.354;9.756;2022-10-30T06:36:32;3.80;;;3.50;;
14592;SDS011;7383;52.354;9.756;2022-10-30T06:39:19;3.40;;;3.10;;
14592;SDS011;7383;52.354;9.756;2022-10-30T06:44:53;3.47;;;3.17;;
14592;SDS011;7383;52.354;9.756;2022-10-30T07:14:02;4.13;;;2.83;;
14592;SDS011;7383;52.354;9.756;2022-10-30T07:16:28;4.05;;;3.10;;
14592;SDS011;7383;52.354;9.756;2022-10-30T07:18:55;3.95;;;3.55;;
14592;SDS011;7383;52.354;9.756;2022-10-30T07:21:21;4.25;;;3.00;;
14592;SDS011;7383;52.354;9.756;2022-10-30T07:23:48;3.80;;;3.40;;
14592;SDS011;7383;52.354;9.756;2022-10-30T07:26:14;5.07;;;3.58;;
14592;SDS011;7383;52.354;9.756;2022-10-30T07:28:41;3.90;;;3.35;;
14592;SDS011;7383;52.354;9.756;2022-10-30T07:31:09;5.53;;;3.55;;
14592;SDS011;7383;52.354;9.756;2022-10-30T07:33:35;3.80;;;3.42;;
14592;SDS011;7383;52.354;9.756;2022-10-30T07:36:02;5.53;;;3.55;;
14592;SDS011;7383;52.354;9.756;2022-10-30T07:38:28;4.25;;;3.40;;
14592;SDS011;7383;52.354;9.756;2022-10-30T07:40:55;3.72;;;3.38;;
14592;SDS011;7383;52.354;9.756;2022-10-30T07:43:21;4.25;;;3.58;;
14592;SDS011;7383;52.354;9.756;2022-10-30T07:45:48;4.07;;;3.15;;
14592;SDS011;7383;52.354;9.756;2022-10-30T07:48:16;5.00;;;4.00;;
14592;SDS011;7383;52.354;9.756;2022-10-30T07:50:42;3.88;;;3.53;;
14592;SDS011;7383;52.354;9.756;2022-10-30T07:53:09;4.10;;;3.67;;
14592;SDS011;7383;52.354;9.756;2022-10-30T07:55:35;5.03;;;4.30;;
14592;SDS011;7383;52.354;9.756;2022-10-30T07:58:02;4.65;;;3.70;;
14592;SDS011;7383;52.354;9.756;2022-10-30T08:00:28;3.50;;;3.20;;
14592;SDS011;7383;52.354;9.756;2022-10-30T08:02:55;4.45;;;3.20;;
14592;SDS011;7383;52.354;9.756;2022-10-30T08:05:23;4.75;;;3.28;;
14592;SDS011;7383;52.354;9.756;2022-10-30T08:07:50;4.38;;;3.25;;
14592;SDS011;7383;52.354;9.756;2022-10-30T08:10:16;3.78;;;3.35;;
14592;SDS011;7383;52.354;9.756;2022-10-30T08:12:43;3.63;;;3.28;;
14592;SDS011;7383;52.354;9.756;2022-10-30T08:15:11;3.92;;;3.63;;
14592;SDS011;7383;52.354;9.756;2022-10-30T08:17:41;3.78;;;3.13;;
14592;SDS011;7383;52.354;9.756;2022-10-30T08:20:12;4.03;;;3.13;;
14592;SDS011;7383;52.354;9.756;2022-10-30T08:22:44;3.50;;;3.13;;
14592;SDS011;7383;52.354;9.756;2022-10-30T08:25:12;3.72;;;3.30;;
14592;SDS011;7383;52.354;9.756;2022-10-30T08:27:39;3.63;;;3.22;;
14592;SDS011;7383;52.354;9.756;2022-10-30T08:30:06;4.15;;;3.13;;
14592;SDS011;7383;52.354;9.756;2022-10-30T08:32:33;4.95;;;3.55;;
14592;SDS011;7383;52.354;9.756;2022-10-30T08:34:59;5.13;;;3.55;;
14592;SDS011;7383;52.354;9.756;2022-10-30T08:37:26;3.88;;;3.58;;
14592;SDS011;7383;52.354;9.756;2022-10-30T08:39:54;4.72;;;3.60;;
14592;SDS011;7383;52.354;9.756;2022-10-30T08:42:20;3.80;;;3.30;;
14592;SDS011;7383;52.354;9.756;2022-10-30T08:44:47;4.00;;;3.50;;
14592;SDS011;7383;52.354;9.756;2022-10-30T08:47:14;3.72;;;3.20;;
14592;SDS011;7383;52.354;9.756;2022-10-30T08:49:40;3.50;;;3.20;;
14592;SDS011;7383;52.354;9.756;2022-10-30T08:52:06;3.65;;;3.35;;
14592;SDS011;7383;52.354;9.756;2022-10-30T08:54:33;3.95;;;3.55;;
14592;SDS011;7383;52.354;9.756;2022-10-30T08:57:01;4.78;;;3.22;;
14592;SDS011;7383;52.354;9.756;2022-10-30T08:59:28;4.63;;;3.13;;
14592;SDS011;7383;52.354;9.756;2022-10-30T09:01:55;3.90;;;3.53;;
14592;SDS011;7383;52.354;9.756;2022-10-30T09:04:21;4.15;;;3.35;;
14592;SDS011;7383;52.354;9.756;2022-10-30T09:06:48;4.18;;;3.15;;
14592;SDS011;7383;52.354;9.756;2022-10-30T09:09:14;4.80;;;3.70;;
14592;SDS011;7383;52.354;9.756;2022-10-30T09:11:41;4.60;;;3.17;;
14592;SDS011;7383;52.354;9.756;2022-10-30T09:14:09;4.97;;;3.50;;
14592;SDS011;7383;52.354;9.756;2022-10-30T09:16:37;4.45;;;3.00;;
14592;SDS011;7383;52.354;9.756;2022-10-30T09:19:04;4.05;;;3.30;;
14592;SDS011;7383;52.354;9.756;2022-10-30T09:21:30;5.05;;;3.40;;
14592;SDS011;7383;52.354;9.756;2022-10-30T09:23:57;3.72;;;3.42;;
14592;SDS011;7383;52.354;9.756;2022-10-30T09:26:25;4.63;;;3.53;;
14592;SDS011;7383;52.354;9.756;2022-10-30T09:28:52;3.53;;;3.10;;
14592;SDS011;7383;52.354;9.756;2022-10-30T09:31:20;4.13;;;3.13;;
14592;SDS011;7383;52.354;9.756;2022-10-30T09:33:46;6.25;;;3.50;;
14592;SDS011;7383;52.354;9.756;2022-10-30T09:36:13;4.00;;;3.30;;
14592;SDS011;7383;52.354;9.756;2022-10-30T09:38:39;5.07;;;3.30;;
14592;SDS011;7383;52.354;9.756;2022-10-30T09:44:01;4.88;;;3.60;;
14592;SDS011;7383;52.354;9.756;2022-10-30T09:46:42;4.63;;;3.67;;
14592;SDS011;7383;52.354;9.756;2022-10-30T09:49:22;5.93;;;3.65;;
14592;SDS011;7383;52.354;9.756;2022-10-30T09:52:13;4.10;;;3.30;;
14592;SDS011;7383;52.354;9.756;2022-10-30T09:54:51;4.88;;;3.38;;
14592;SDS011;7383;52.354;9.756;2022-10-30T09:57:28;3.92;;;3.35;;
14592;SDS011;7383;52.354;9.756;2022-10-30T10:00:03;4.00;;;3.25;;
14592;SDS011;7383;52.354;9.756;2022-10-30T10:02:35;4.57;;;3.65;;
14592;SDS011;7383;52.354;9.756;2022-10-30T10:05:10;3.83;;;3.20;;
14592;SDS011;7383;52.354;9.756;2022-10-30T10:07:43;4.03;;;2.92;;
14592;SDS011;7383;52.354;9.756;2022-10-30T10:10:16;3.17;;;2.95;;
14592;SDS011;7383;52.354;9.756;2022-10-30T10:12:46;4.00;;;3.25;;
14592;SDS011;7383;52.354;9.756;2022-10-30T10:15:18;5.40;;;3.40;;
14592;SDS011;7383;52.354;9.756;2022-10-30T10:17:50;5.13;;;3.35;;
14592;SDS011;7383;52.354;9.756;2022-10-30T10:20:21;4.13;;;3.35;;
14592;SDS011;7383;52.354;9.756;2022-10-30T10:22:55;4.65;;;3.63;;
14592;SDS011;7383;52.354;9.756;2022-10-30T10:25:24;3.92;;;3.38;;
14592;SDS011;7383;52.354;9.756;2022-10-30T10:27:55;4.28;;;3.55;;
14592;SDS011;7383;52.354;9.756;2022-10-30T10:30:34;4.10;;;3.22;;
14592;SDS011;7383;52.354;9.756;2022-10-30T10:33:12;3.45;;;2.83;;
14592;SDS011;7383;52.354;9.756;2022-10-30T10:35:58;3.03;;;2.78;;
14592;SDS011;7383;52.354;9.756;2022-10-30T10:38:37;4.75;;;3.22;;
14592;SDS011;7383;52.354;9.756;2022-10-30T10:41:14;4.65;;;3.30;;
14592;SDS011;7383;52.354;9.756;2022-10-30T10:43:52;5.60;;;3.60;;
14592;SDS011;7383;52.354;9.756;2022-10-30T10:46:37;3.85;;;3.38;;
14592;SDS011;7383;52.354;9.756;2022-10-30T10:49:22;3.92;;;3.10;;
14592;SDS011;7383;52.354;9.756;2022-10-30T10:51:58;3.10;;;2.80;;
14592;SDS011;7383;52.354;9.756;2022-10-30T10:54:28;6.03;;;3.33;;
14592;SDS011;7383;52.354;9.756;2022-10-30T10:57:02;4.82;;;3.15;;
14592;SDS011;7383;52.354;9.756;2022-10-30T10:59:33;3.35;;;2.67;;
14592;SDS011;7383;52.354;9.756;2022-10-30T11:02:11;4.05;;;3.13;;
14592;SDS011;7383;52.354;9.756;2022-10-30T11:04:54;3.75;;;2.88;;
14592;SDS011;7383;52.354;9.756;2022-10-30T11:07:29;4.03;;;3.45;;
14592;SDS011;7383;52.354;9.756;2022-10-30T11:09:58;6.45;;;3.67;;
14592;SDS011;7383;52.354;9.756;2022-10-30T11:12:26;6.55;;;3.60;;
14592;SDS011;7383;52.354;9.756;2022-10-30T11:14:54;6.43;;;3.58;;
14592;SDS011;7383;52.354;9.756;2022-10-30T11:17:23;5.65;;;3.30;;
14592;SDS011;7383;52.354;9.756;2022-10-30T11:19:55;3.55;;;3.25;;
14592;SDS011;7383;52.354;9.756;2022-10-30T11:22:27;3.22;;;2.92;;
14592;SDS011;7383;52.354;9.756;2022-10-30T11:25:02;3.70;;;2.70;;
14592;SDS011;7383;52.354;9.756;2022-10-30T11:27:44;6.38;;;3.47;;
14592;SDS011;7383;52.354;9.756;2022-10-30T11:30:15;5.00;;;3.13;;
14592;SDS011;7383;52.354;9.756;2022-10-30T11:32:44;4.38;;;3.25;;
14592;SDS011;7383;52.354;9.756;2022-10-30T11:35:13;4.18;;;3.30;;
14592;SDS011;7383;52.354;9.756;2022-10-30T11:37:42;3.65;;;2.88;;
14592;SDS011;7383;52.354;9.756;2022-10-30T11:40:15;5.18;;;2.80;;
14592;SDS011;7383;52.354;9.756;2022-10-30T11:42:44;4.15;;;2.78;;
14592;SDS011;7383;52.354;9.756;2022-10-30T11:45:13;3.33;;;3.03;;
14592;SDS011;7383;52.354;9.756;2022-10-30T11:47:41;3.65;;;3.33;;
14592;SDS011;7383;52.354;9.756;2022-10-30T11:50:15;2.97;;;2.63;;
14592;SDS011;7383;52.354;9.756;2022-10-30T11:52:45;3.42;;;2.90;;
14592;SDS011;7383;52.354;9.756;2022-10-30T11:55:15;4.07;;;3.10;;
14592;SDS011;7383;52.354;9.756;2022-10-30T11:57:45;3.30;;;3.00;;
14592;SDS011;7383;52.354;9.756;2022-10-30T12:00:15;3.40;;;2.80;;
14592;SDS011;7383;52.354;9.756;2022-10-30T12:02:44;3.10;;;2.80;;
14592;SDS011;7383;52.354;9.756;2022-10-30T12:05:30;3.58;;;3.00;;
14592;SDS011;7383;52.354;9.756;2022-10-30T12:10:53;4.57;;;3.05;;
14592;SDS011;7383;52.354;9.756;2022-10-30T12:13:23;3.80;;;3.05;;
14592;SDS011;7383;52.354;9.756;2022-10-30T12:16:02;3.50;;;3.20;;
14592;SDS011;7383;52.354;9.756;2022-10-30T12:18:33;4.68;;;3.05;;
14592;SDS011;7383;52.354;9.756;2022-10-30T12:21:02;3.22;;;2.63;;
14592;SDS011;7383;52.354;9.756;2022-10-30T12:23:28;3.90;;;3.22;;
14592;SDS011;7383;52.354;9.756;2022-10-30T12:25:57;3.75;;;3.22;;
14592;SDS011;7383;52.354;9.756;2022-10-30T12:28:26;2.67;;;2.30;;
14592;SDS011;7383;52.354;9.756;2022-10-30T12:30:56;2.75;;;2.55;;
14592;SDS011;7383;52.354;9.756;2022-10-30T12:33:26;2.92;;;2.63;;
14592;SDS011;7383;52.354;9.756;2022-10-30T12:35:57;3.20;;;2.90;;
14592;SDS011;7383;52.354;9.756;2022-10-30T12:38:27;3.53;;;3.15;;
14592;SDS011;7383;52.354;9.756;2022-10-30T12:40:59;3.60;;;2.95;;
14592;SDS011;7383;52.354;9.756;2022-10-30T12:43:31;3.17;;;2.80;;
14592;SDS011;7383;52.354;9.756;2022-10-30T12:46:04;3.40;;;2.88;;
14592;SDS011;7383;52.354;9.756;2022-10-30T12:48:46;3.75;;;2.88;;
14592;SDS011;7383;52.354;9.756;2022-10-30T12:51:19;3.72;;;3.20;;
14592;SDS011;7383;52.354;9.756;2022-10-30T12:53:55;3.92;;;3.28;;
14592;SDS011;7383;52.354;9.756;2022-10-30T12:56:28;5.38;;;3.22;;
14592;SDS011;7383;52.354;9.756;2022-10-30T12:58:58;4.43;;;3.20;;
14592;SDS011;7383;52.354;9.756;2022-10-30T13:01:38;4.43;;;3.47;;
14592;SDS011;7383;52.354;9.756;2022-10-30T13:04:11;4.03;;;3.42;;
14592;SDS011;7383;52.354;9.756;2022-10-30T13:06:43;3.00;;;2.70;;
14592;SDS011;7383;52.354;9.756;2022-10-30T13:09:17;3.35;;;2.88;;
14592;SDS011;7383;52.354;9.756;2022-10-30T13:11:50;3.08;;;2.78;;
14592;SDS011;7383;52.354;9.756;2022-10-30T13:14:27;3.30;;;3.00;;
14592;SDS011;7383;52.354;9.756;2022-10-30T13:16:59;3.97;;;2.83;;
14592;SDS011;7383;52.354;9.756;2022-10-30T13:19:25;3.80;;;2.90;;
14592;SDS011;7383;52.354;9.756;2022-10-30T13:21:54;4.15;;;2.80;;
14592;SDS011;7383;52.354;9.756;2022-10-30T13:24:28;3.47;;;2.83;;
14592;SDS011;7383;52.354;9.756;2022-10-30T13:27:05;3.95;;;2.60;;
14592;SDS011;7383;52.354;9.756;2022-10-30T13:29:40;2.45;;;2.22;;
14592;SDS011;7383;52.354;9.756;2022-10-30T13:32:17;3.53;;;3.05;;
14592;SDS011;7383;52.354;9.756;2022-10-30T13:34:54;3.60;;;2.67;;
14592;SDS011;7383;52.354;9.756;2022-10-30T13:37:33;3.65;;;2.72;;
14592;SDS011;7383;52.354;9.756;2022-10-30T13:40:11;4.35;;;3.03;;
14592;SDS011;7383;52.354;9.756;2022-10-30T13:42:49;3.47;;;3.05;;
14592;SDS011;7383;52.354;9.756;2022-10-30T13:45:33;5.28;;;3.38;;
14592;SDS011;7383;52.354;9.756;2022-10-30T13:48:14;3.47;;;2.67;;
14592;SDS011;7383;52.354;9.756;2022-10-30T13:50:53;4.40;;;2.78;;
14592;SDS011;7383;52.354;9.756;2022-10-30T13:53:35;4.22;;;2.83;;
14592;SDS011;7383;52.354;9.756;2022-10-30T13:56:07;3.90;;;3.00;;
14592;SDS011;7383;52.354;9.756;2022-10-30T13:58:40;3.53;;;2.60;;
14592;SDS011;7383;52.354;9.756;2022-10-30T14:01:14;2.70;;;2.50;;
14592;SDS011;7383;52.354;9.756;2022-10-30T14:03:45;2.88;;;2.67;;
14592;SDS011;7383;52.354;9.756;2022-10-30T14:06:20;3.63;;;3.10;;
14592;SDS011;7383;52.354;9.756;2022-10-30T14:08:59;3.67;;;2.90;;
14592;SDS011;7383;52.354;9.756;2022-10-30T14:11:32;6.05;;;3.08;;
14592;SDS011;7383;52.354;9.756;2022-10-30T14:14:02;4.03;;;3.00;;
14592;SDS011;7383;52.354;9.756;2022-10-30T14:16:34;3.42;;;3.13;;
14592;SDS011;7383;52.354;9.756;2022-10-30T14:19:06;3.83;;;3.40;;
14592;SDS011;7383;52.354;9.756;2022-10-30T14:21:37;3.97;;;2.80;;
14592;SDS011;7383;52.354;9.756;2022-10-30T14:24:15;5.85;;;3.15;;
14592;SDS011;7383;52.354;9.756;2022-10-30T14:26:49;3.67;;;3.05;;
14592;SDS011;7383;52.354;9.756;2022-10-30T14:29:30;3.05;;;2.65;;
14592;SDS011;7383;52.354;9.756;2022-10-30T14:44:04;3.65;;;3.00;;
14592;SDS011;7383;52.354;9.756;2022-10-30T14:46:42;4.05;;;3.08;;
14592;SDS011;7383;52.354;9.756;2022-10-30T14:49:24;4.40;;;3.22;;
14592;SDS011;7383;52.354;9.756;2022-10-30T14:52:12;3.78;;;3.40;;
14592;SDS011;7383;52.354;9.756;2022-10-30T14:54:44;3.67;;;3.08;;
14592;SDS011;7383;52.354;9.756;2022-10-30T14:57:19;3.47;;;3.17;;
14592;SDS011;7383;52.354;9.756;2022-10-30T14:59:49;3.97;;;3.17;;
14592;SDS011;7383;52.354;9.756;2022-10-30T15:02:56;3.33;;;2.88;;
14592;SDS011;7383;52.354;9.756;2022-10-30T15:05:35;4.65;;;3.20;;
14592;SDS011;7383;52.354;9.756;2022-10-30T15:08:11;3.25;;;2.70;;
14592;SDS011;7383;52.354;9.756;2022-10-30T15:10:58;3.28;;;2.75;;
14592;SDS011;7383;52.354;9.756;2022-10-30T15:13:36;2.83;;;2.63;;
14592;SDS011;7383;52.354;9.756;2022-10-30T15:16:05;3.75;;;3.33;;
14592;SDS011;7383;52.354;9.756;2022-10-30T15:18:34;3.38;;;2.97;;
14592;SDS011;7383;52.354;9.756;2022-10-30T15:21:02;4.60;;;3.30;;
14592;SDS011;7383;52.354;9.756;2022-10-30T15:23:30;3.97;;;3.13;;
14592;SDS011;7383;52.354;9.756;2022-10-30T15:26:00;5.03;;;4.20;;
14592;SDS011;7383;52.354;9.756;2022-10-30T15:28:30;4.00;;;3.53;;
14592;SDS011;7383;52.354;9.756;2022-10-30T15:31:00;3.90;;;3.47;;
14592;SDS011;7383;52.354;9.756;2022-10-30T15:33:29;3.60;;;3.30;;
14592;SDS011;7383;52.354;9.756;2022-10-30T15:35:57;3.50;;;3.20;;
14592;SDS011;7383;52.354;9.756;2022-10-30T15:38:24;3.80;;;3.15;;
14592;SDS011;7383;52.354;9.756;2022-10-30T15:40:50;3.47;;;3.17;;
14592;SDS011;7383;52.354;9.756;2022-10-30T15:43:22;4.38;;;3.50;;
14592;SDS011;7383;52.354;9.756;2022-10-30T15:45:53;4.53;;;4.03;;
14592;SDS011;7383;52.354;9.756;2022-10-30T15:48:21;3.83;;;3.33;;
14592;SDS011;7383;52.354;9.756;2022-10-30T15:50:53;4.93;;;4.05;;
14592;SDS011;7383;52.354;9.756;2022-10-30T15:53:28;5.30;;;4.40;;
14592;SDS011;7383;52.354;9.756;2022-10-30T15:56:01;4.60;;;3.92;;
14592;SDS011;7383;52.354;9.756;2022-10-30T15:58:28;4.32;;;3.92;;
14592;SDS011;7383;52.354;9.756;2022-10-30T16:00:59;5.43;;;3.92;;
14592;SDS011;7383;52.354;9.756;2022-10-30T16:03:27;5.82;;;4.65;;
14592;SDS011;7383;52.354;9.756;2022-10-30T16:06:05;5.15;;;4.68;;
14592;SDS011;7383;52.354;9.756;2022-10-30T16:08:43;4.60;;;4.28;;
14592;SDS011;7383;52.354;9.756;2022-10-30T16:11:12;4.97;;;4.43;;
14592;SDS011;7383;52.354;9.756;2022-10-30T16:13:39;4.78;;;4.32;;
14592;SDS011;7383;52.354;9.756;2022-10-30T16:16:08;5.10;;;4.60;;
14592;SDS011;7383;52.354;9.756;2022-10-30T16:18:38;4.93;;;4.43;;
14592;SDS011;7383;52.354;9.756;2022-10-30T16:21:08;4.78;;;4.30;;
14592;SDS011;7383;52.354;9.756;2022-10-30T16:23:45;4.57;;;4.20;;
14592;SDS011;7383;52.354;9.756;2022-10-30T16:26:22;5.43;;;3.92;;
14592;SDS011;7383;52.354;9.756;2022-10-30T16:28:54;4.45;;;4.05;;
14592;SDS011;7383;52.354;9.756;2022-10-30T16:31:21;5.32;;;4.25;;
14592;SDS011;7383;52.354;9.756;2022-10-30T16:33:48;4.82;;;4.40;;
14592;SDS011;7383;52.354;9.756;2022-10-30T16:36:17;5.70;;;4.60;;
14592;SDS011;7383;52.354;9.756;2022-10-30T16:38:45;4.65;;;4.10;;
14592;SDS011;7383;52.354;9.756;2022-10-30T16:41:13;5.68;;;4.63;;
14592;SDS011;7383;52.354;9.756;2022-10-30T16:43:41;11.52;;;10.35;;
14592;SDS011;7383;52.354;9.756;2022-10-30T16:46:32;110.28;;;61.00;;
14592;SDS011;7383;52.354;9.756;2022-10-30T16:49:04;69.43;;;41.42;;
14592;SDS011;7383;52.354;9.756;2022-10-30T16:51:38;32.95;;;22.38;;
14592;SDS011;7383;52.354;9.756;2022-10-30T16:54:05;18.50;;;13.52;;
14592;SDS011;7383;52.354;9.756;2022-10-30T16:56:42;10.38;;;8.90;;
14592;SDS011;7383;52.354;9.756;2022-10-30T16:59:12;9.07;;;7.22;;
14592;SDS011;7383;52.354;9.756;2022-10-30T17:01:42;5.82;;;5.30;;
14592;SDS011;7383;52.354;9.756;2022-10-30T17:04:11;5.55;;;5.05;;
14592;SDS011;7383;52.354;9.756;2022-10-30T17:06:42;6.18;;;4.90;;
14592;SDS011;7383;52.354;9.756;2022-10-30T17:09:16;5.30;;;4.80;;
14592;SDS011;7383;52.354;9.756;2022-10-30T17:11:46;5.15;;;4.65;;
14592;SDS011;7383;52.354;9.756;2022-10-30T17:14:28;5.00;;;4.50;;
14592;SDS011;7383;52.354;9.756;2022-10-30T17:17:11;4.82;;;4.43;;
14592;SDS011;7383;52.354;9.756;2022-10-30T17:19:47;5.03;;;4.53;;
14592;SDS011;7383;52.354;9.756;2022-10-30T17:22:16;5.05;;;4.55;;
14592;SDS011;7383;52.354;9.756;2022-10-30T17:24:45;5.05;;;4.55;;
14592;SDS011;7383;52.354;9.756;2022-10-30T17:33:00;6.65;;;5.55;;
14592;SDS011;7383;52.354;9.756;2022-10-30T17:35:27;6.45;;;5.53;;
14592;SDS011;7383;52.354;9.756;2022-10-30T17:37:55;6.10;;;5.43;;
14592;SDS011;7383;52.354;9.756;2022-10-30T17:40:21;5.85;;;5.28;;
14592;SDS011;7383;52.354;9.756;2022-10-30T17:42:48;6.47;;;5.60;;
14592;SDS011;7383;52.354;9.756;2022-10-30T17:45:15;6.97;;;6.13;;
14592;SDS011;7383;52.354;9.756;2022-10-30T17:47:41;6.22;;;5.65;;
14592;SDS011;7383;52.354;9.756;2022-10-30T17:50:08;6.43;;;5.68;;
14592;SDS011;7383;52.354;9.756;2022-10-30T17:52:35;6.22;;;5.63;;
14592;SDS011;7383;52.354;9.756;2022-10-30T17:55:03;7.00;;;5.85;;
14592;SDS011;7383;52.354;9.756;2022-10-30T17:57:44;8.52;;;6.10;;
14592;SDS011;7383;52.354;9.756;2022-10-30T18:00:11;6.88;;;5.88;;
14592;SDS011;7383;52.354;9.756;2022-10-30T18:02:39;8.77;;;6.75;;
14592;SDS011;7383;52.354;9.756;2022-10-30T18:05:07;7.50;;;6.53;;
14592;SDS011;7383;52.354;9.756;2022-10-30T18:07:39;6.82;;;6.22;;
14592;SDS011;7383;52.354;9.756;2022-10-30T18:10:07;6.43;;;5.82;;
14592;SDS011;7383;52.354;9.756;2022-10-30T18:12:34;8.20;;;6.70;;
14592;SDS011;7383;52.354;9.756;2022-10-30T18:15:01;6.47;;;5.63;;
14592;SDS011;7383;52.354;9.756;2022-10-30T18:17:41;6.88;;;6.18;;
14592;SDS011;7383;52.354;9.756;2022-10-30T18:20:08;6.40;;;5.80;;
14592;SDS011;7383;52.354;9.756;2022-10-30T18:22:34;6.63;;;5.60;;
14592;SDS011;7383;52.354;9.756;2022-10-30T18:25:01;6.93;;;5.18;;
14592;SDS011;7383;52.354;9.756;2022-10-30T18:27:32;5.63;;;4.70;;
14592;SDS011;7383;52.354;9.756;2022-10-30T18:29:59;5.47;;;4.97;;
14592;SDS011;7383;52.354;9.756;2022-10-30T18:32:25;8.55;;;6.13;;
14592;SDS011;7383;52.354;9.756;2022-10-30T18:34:52;6.32;;;5.28;;
14592;SDS011;7383;52.354;9.756;2022-10-30T18:37:18;6.20;;;5.30;;
14592;SDS011;7383;52.354;9.756;2022-10-30T18:39:44;6.45;;;5.32;;
14592;SDS011;7383;52.354;9.756;2022-10-30T18:42:11;5.85;;;5.05;;
14592;SDS011;7383;52.354;9.756;2022-10-30T18:44:39;7.28;;;5.60;;
14592;SDS011;7383;52.354;9.756;2022-10-30T18:47:07;6.50;;;5.57;;
14592;SDS011;7383;52.354;9.756;2022-10-30T18:49:35;6.47;;;5.53;;
14592;SDS011;7383;52.354;9.756;2022-10-30T18:52:02;7.75;;;6.00;;
14592;SDS011;7383;52.354;9.756;2022-10-30T18:54:29;6.07;;;5.57;;
14592;SDS011;7383;52.354;9.756;2022-10-30T18:56:55;6.10;;;5.50;;
14592;SDS011;7383;52.354;9.756;2022-10-30T18:59:22;5.68;;;5.10;;
14592;SDS011;7383;52.354;9.756;2022-10-30T19:01:50;4.80;;;4.38;;
14592;SDS011;7383;52.354;9.756;2022-10-30T19:04:17;5.45;;;4.80;;
14592;SDS011;7383;52.354;9.756;2022-10-30T19:06:43;6.53;;;5.00;;
14592;SDS011;7383;52.354;9.756;2022-10-30T19:09:10;6.15;;;4.70;;
14592;SDS011;7383;52.354;9.756;2022-10-30T19:11:36;6.50;;;5.35;;
14592;SDS011;7383;52.354;9.756;2022-10-30T19:14:04;4.97;;;4.57;;
14592;SDS011;7383;52.354;9.756;2022-10-30T19:16:34;6.38;;;5.07;;
14592;SDS011;7383;52.354;9.756;2022-10-30T19:19:02;5.88;;;5.38;;
14592;SDS011;7383;52.354;9.756;2022-10-30T19:21:29;5.97;;;4.70;;
14592;SDS011;7383;52.354;9.756;2022-10-30T19:23:59;5.53;;;4.97;;
14592;SDS011;7383;52.354;9.756;2022-10-30T19:26:27;6.97;;;5.78;;